createdAt,value
2022-07-25T00:02:15.108Z,48.94
2022-07-25T00:04:43.898Z,48.82
2022-07-25T00:07:12.800Z,48.75
2022-07-25T00:09:40.323Z,49.11
2022-07-25T00:12:08.481Z,49.36
2022-07-25T00:14:38.827Z,49.09
2022-07-25T00:17:06.361Z,48.78
2022-07-25T00:19:33.902Z,48.72
2022-07-25T00:22:01.381Z,48.78
2022-07-25T00:24:30.395Z,48.88
2022-07-25T00:26:57.933Z,49.35
2022-07-25T00:29:25.530Z,49.56
2022-07-25T00:31:52.992Z,49.22
2022-07-25T00:34:20.441Z,48.59
2022-07-25T00:36:47.984Z,48.89
2022-07-25T00:39:17.033Z,49.41
2022-07-25T00:41:46.137Z,49.01
2022-07-25T00:44:23.107Z,49.01
2022-07-25T00:46:52.876Z,49.18
2022-07-25T00:49:20.385Z,49.18
2022-07-25T00:51:48.564Z,48.80
2022-07-25T00:54:16.430Z,49.12
2022-07-25T00:56:44.296Z,49.10
2022-07-25T00:59:13.170Z,49.12
2022-07-25T01:01:42.644Z,49.10
2022-07-25T01:04:10.213Z,48.68
2022-07-25T01:06:37.831Z,48.58
2022-07-25T01:09:05.336Z,48.88
2022-07-25T01:11:32.889Z,48.44
2022-07-25T01:14:00.719Z,48.73
2022-07-25T01:16:29.679Z,48.58
2022-07-25T01:18:57.207Z,48.68
2022-07-25T01:21:26.442Z,49.18
2022-07-25T01:23:54.107Z,49.00
2022-07-25T01:26:21.617Z,49.08
2022-07-25T01:28:49.119Z,49.06
2022-07-25T01:31:16.744Z,49.01
2022-07-25T01:33:44.281Z,49.16
2022-07-25T01:36:12.123Z,49.68
2022-07-25T01:38:41.012Z,49.69
2022-07-25T01:41:08.618Z,49.67
2022-07-25T01:43:36.178Z,50.00
2022-07-25T01:46:03.744Z,49.78
2022-07-25T01:48:31.369Z,49.88
2022-07-25T01:50:58.967Z,49.69
2022-07-25T01:53:27.285Z,49.17
2022-07-25T01:55:56.206Z,50.08
2022-07-25T01:58:24.937Z,49.65
2022-07-25T02:00:52.917Z,50.29
2022-07-25T02:03:32.695Z,49.86
2022-07-25T02:06:03.783Z,50.53
2022-07-25T02:08:31.507Z,50.48
2022-07-25T02:11:01.162Z,50.11
2022-07-25T02:13:28.831Z,50.02
2022-07-25T02:15:56.346Z,50.30
2022-07-25T02:18:23.876Z,50.02
2022-07-25T02:20:51.398Z,49.80
2022-07-25T02:23:18.887Z,49.62
2022-07-25T02:25:46.427Z,49.62
2022-07-25T02:28:15.345Z,49.67
2022-07-25T02:30:42.901Z,49.84
2022-07-25T02:33:10.637Z,50.51
2022-07-25T02:35:38.166Z,50.57
2022-07-25T02:38:05.614Z,50.77
2022-07-25T02:40:33.121Z,50.84
2022-07-25T02:43:00.610Z,51.10
2022-07-25T02:45:29.430Z,51.11
2022-07-25T02:47:56.901Z,51.16
2022-07-25T02:50:24.421Z,51.72
2022-07-25T02:52:51.869Z,51.10
2022-07-25T02:55:19.355Z,51.55
2022-07-25T02:57:46.800Z,51.53
2022-07-25T03:00:15.765Z,51.57
2022-07-25T03:02:45.221Z,52.32
2022-07-25T03:05:15.360Z,52.18
2022-07-25T03:07:43.251Z,51.58
2022-07-25T03:10:13.822Z,52.13
2022-07-25T03:12:42.742Z,52.56
2022-07-25T03:15:12.086Z,51.99
2022-07-25T03:17:40.502Z,52.25
2022-07-25T03:20:10.521Z,52.45
2022-07-25T03:22:38.719Z,52.95
2022-07-25T03:25:15.972Z,52.56
2022-07-25T03:27:49.362Z,52.32
2022-07-25T03:30:17.107Z,52.73
2022-07-25T03:32:44.668Z,52.38
2022-07-25T03:35:13.494Z,52.57
2022-07-25T03:37:41.039Z,52.31
2022-07-25T03:40:09.503Z,52.24
2022-07-25T03:42:36.981Z,52.57
2022-07-25T03:45:05.313Z,52.75
2022-07-25T03:47:32.811Z,52.86
2022-07-25T03:50:00.304Z,52.63
2022-07-25T03:52:29.151Z,52.59
2022-07-25T03:54:56.666Z,52.93
2022-07-25T03:57:24.145Z,52.73
2022-07-25T03:59:51.623Z,52.87
2022-07-25T04:02:19.179Z,53.06
2022-07-25T04:04:46.838Z,53.10
2022-07-25T04:07:14.343Z,53.01
2022-07-25T04:09:43.329Z,52.92
2022-07-25T04:12:10.906Z,53.10
2022-07-25T04:14:38.634Z,53.05
2022-07-25T04:17:06.291Z,53.02
2022-07-25T04:19:34.000Z,52.88
2022-07-25T04:22:01.462Z,52.81
2022-07-25T04:24:28.930Z,52.71
2022-07-25T04:26:57.790Z,52.82
2022-07-25T04:29:25.302Z,52.74
2022-07-25T04:31:53.077Z,53.07
2022-07-25T04:34:21.109Z,52.90
2022-07-25T04:36:48.623Z,52.70
2022-07-25T04:39:16.223Z,52.69
2022-07-25T04:41:43.780Z,52.26
2022-07-25T04:44:12.610Z,52.26
2022-07-25T04:46:41.410Z,51.60
2022-07-25T04:49:09.215Z,51.78
2022-07-25T04:51:36.798Z,52.02
2022-07-25T04:54:04.769Z,52.43
2022-07-25T04:56:32.560Z,52.14
2022-07-25T04:59:06.126Z,52.52
2022-07-25T05:01:36.201Z,52.15
2022-07-25T05:04:04.017Z,51.31
2022-07-25T05:06:31.873Z,51.15
2022-07-25T05:08:59.402Z,51.26
2022-07-25T05:11:26.950Z,51.42
2022-07-25T05:13:54.482Z,51.52
2022-07-25T05:16:22.060Z,51.28
2022-07-25T05:18:50.973Z,51.26
2022-07-25T05:21:18.606Z,51.51
2022-07-25T05:23:46.107Z,51.90
2022-07-25T05:26:13.750Z,52.44
2022-07-25T05:28:41.477Z,52.36
2022-07-25T05:31:09.321Z,52.19
2022-07-25T05:33:37.675Z,52.07
2022-07-25T05:36:08.724Z,52.13
2022-07-25T05:38:36.234Z,51.48
2022-07-25T05:41:03.789Z,51.94
2022-07-25T05:43:31.380Z,51.89
2022-07-25T05:46:02.700Z,52.58
2022-07-25T05:48:30.396Z,52.57
2022-07-25T05:50:59.379Z,52.25
2022-07-25T05:53:28.187Z,52.30
2022-07-25T05:55:55.825Z,52.31
2022-07-25T05:58:29.132Z,51.94
2022-07-25T06:00:57.825Z,52.18
2022-07-25T06:03:25.445Z,52.04
2022-07-25T06:05:53.006Z,52.10
2022-07-25T06:08:20.474Z,51.89
2022-07-25T06:10:51.587Z,51.76
2022-07-25T06:13:20.754Z,51.99
2022-07-25T06:15:48.467Z,51.62
2022-07-25T06:18:15.998Z,51.99
2022-07-25T06:20:43.718Z,52.10
2022-07-25T06:23:11.203Z,51.81
2022-07-25T06:25:38.836Z,51.64
2022-07-25T06:28:07.831Z,51.77
2022-07-25T06:30:38.224Z,51.23
2022-07-25T06:33:05.702Z,51.70
2022-07-25T06:35:33.221Z,51.30
2022-07-25T06:38:00.744Z,50.84
2022-07-25T06:40:28.749Z,50.75
2022-07-25T06:42:56.304Z,50.25
2022-07-25T06:45:25.486Z,50.05
2022-07-25T06:47:53.078Z,49.65
2022-07-25T06:50:21.340Z,49.76
2022-07-25T06:52:50.000Z,49.68
2022-07-25T06:55:17.676Z,48.88
2022-07-25T06:57:45.201Z,49.03
2022-07-25T07:00:14.411Z,48.53
2022-07-25T07:02:55.876Z,48.15
2022-07-25T07:05:24.145Z,48.11
2022-07-25T07:07:51.761Z,48.44
2022-07-25T07:10:20.153Z,47.87
2022-07-25T07:12:47.888Z,47.46
2022-07-25T07:15:25.801Z,47.29
2022-07-25T07:17:54.854Z,47.13
2022-07-25T07:20:22.558Z,46.72
2022-07-25T07:22:50.549Z,46.58
2022-07-25T07:25:20.872Z,46.78
2022-07-25T07:27:49.119Z,46.33
2022-07-25T07:30:20.841Z,46.07
2022-07-25T07:32:51.640Z,46.10
2022-07-25T07:35:20.747Z,45.58
2022-07-25T07:37:48.445Z,45.70
2022-07-25T07:40:16.938Z,45.88
2022-07-25T07:42:47.392Z,45.21
2022-07-25T07:45:16.946Z,45.25
2022-07-25T07:47:45.077Z,45.22
2022-07-25T07:50:12.660Z,45.18
2022-07-25T07:52:41.493Z,45.08
2022-07-25T07:55:42.301Z,45.03
2022-07-25T07:58:10.262Z,44.71
2022-07-25T08:00:39.354Z,44.76
2022-07-25T08:03:08.661Z,45.04
2022-07-25T08:05:40.051Z,44.86
2022-07-25T08:08:11.559Z,44.09
2022-07-25T08:10:42.114Z,43.53
2022-07-25T08:13:18.445Z,42.88
2022-07-25T08:15:48.301Z,42.98
2022-07-25T08:18:17.624Z,42.83
2022-07-25T08:20:45.959Z,42.85
2022-07-25T08:23:15.296Z,42.96
2022-07-25T08:25:43.656Z,43.10
2022-07-25T08:28:11.920Z,43.02
2022-07-25T08:30:40.760Z,42.56
2022-07-25T08:33:10.801Z,42.08
2022-07-25T08:35:38.609Z,41.69
2022-07-25T08:38:06.743Z,41.73
2022-07-25T08:40:35.622Z,41.73
2022-07-25T08:43:03.247Z,41.04
2022-07-25T08:45:30.750Z,41.13
2022-07-25T08:47:58.242Z,40.56
2022-07-25T08:50:28.091Z,40.68
2022-07-25T08:53:10.409Z,40.18
2022-07-25T08:55:45.914Z,41.02
2022-07-25T08:58:15.279Z,40.47
2022-07-25T09:00:44.109Z,40.22
2022-07-25T09:03:12.168Z,39.63
2022-07-25T09:05:40.849Z,39.72
2022-07-25T09:08:11.063Z,39.95
2022-07-25T09:10:42.330Z,39.87
2022-07-25T09:13:14.293Z,41.30
2022-07-25T09:15:46.162Z,42.77
2022-07-25T09:18:17.056Z,44.05
2022-07-25T09:20:46.850Z,44.16
2022-07-25T09:23:15.726Z,43.81
2022-07-25T09:25:43.551Z,42.04
2022-07-25T09:28:18.026Z,40.91
2022-07-25T09:30:55.951Z,42.86
2022-07-25T09:33:24.782Z,39.52
2022-07-25T09:35:52.783Z,40.64
2022-07-25T09:38:21.645Z,37.64
2022-07-25T09:40:56.983Z,38.01
2022-07-25T09:43:37.377Z,36.99
2022-07-25T09:46:05.570Z,37.88
2022-07-25T09:48:33.448Z,36.94
2022-07-25T09:51:01.238Z,36.40
2022-07-25T09:53:29.337Z,35.96
2022-07-25T09:55:57.567Z,36.87
2022-07-25T09:58:26.907Z,35.70
2022-07-25T10:01:01.738Z,36.37
2022-07-25T10:03:40.375Z,35.35
2022-07-25T10:06:16.067Z,34.66
2022-07-25T10:08:44.502Z,34.08
2022-07-25T10:11:31.446Z,35.02
2022-07-25T10:14:11.094Z,34.72
2022-07-25T10:16:46.808Z,33.28
2022-07-25T10:19:14.641Z,33.34
2022-07-25T10:21:42.433Z,33.95
2022-07-25T10:24:11.727Z,33.45
2022-07-25T10:26:40.955Z,33.67
2022-07-25T10:29:11.494Z,33.05
2022-07-25T10:31:49.424Z,33.20
2022-07-25T10:34:17.842Z,32.40
2022-07-25T10:36:48.017Z,32.32
2022-07-25T10:39:16.948Z,32.98
2022-07-25T10:41:50.472Z,32.03
2022-07-25T10:44:19.390Z,31.48
2022-07-25T10:46:47.251Z,30.86
2022-07-25T10:49:23.612Z,31.62
2022-07-25T10:51:58.250Z,30.78
2022-07-25T10:54:26.707Z,29.97
2022-07-25T10:56:57.108Z,30.49
2022-07-25T10:59:35.200Z,30.84
2022-07-25T11:02:03.747Z,30.36
2022-07-25T11:04:31.502Z,29.50
2022-07-25T11:06:59.095Z,30.07
2022-07-25T11:09:28.631Z,28.49
2022-07-25T11:11:58.026Z,27.78
2022-07-25T11:14:27.477Z,28.60
2022-07-25T11:16:56.911Z,28.90
2022-07-25T11:19:27.209Z,29.32
2022-07-25T11:21:56.832Z,29.62
2022-07-25T11:24:35.271Z,28.58
2022-07-25T11:27:02.742Z,28.31
2022-07-25T11:29:30.246Z,28.75
2022-07-25T11:32:00.483Z,28.19
2022-07-25T11:34:29.988Z,27.81
2022-07-25T11:36:59.377Z,27.51
2022-07-25T11:39:28.416Z,28.44
2022-07-25T11:42:07.674Z,27.77
2022-07-25T11:44:37.234Z,28.00
2022-07-25T11:47:08.161Z,27.96
2022-07-25T11:49:45.825Z,28.61
2022-07-25T11:52:21.635Z,27.92
2022-07-25T11:54:57.005Z,28.62
2022-07-25T11:57:26.370Z,29.28
2022-07-25T11:59:55.127Z,28.28
2022-07-25T12:02:26.253Z,28.37
2022-07-25T12:04:58.352Z,28.86
2022-07-25T12:07:44.534Z,27.42
2022-07-25T12:10:15.654Z,25.55
2022-07-25T12:12:49.648Z,23.41
2022-07-25T12:15:19.915Z,24.42
2022-07-25T12:17:49.554Z,21.65
2022-07-25T12:20:18.606Z,21.68
2022-07-25T12:22:46.570Z,22.06
2022-07-25T12:25:14.254Z,22.03
2022-07-25T12:27:42.380Z,23.79
2022-07-25T12:30:11.530Z,23.57
2022-07-25T12:32:39.656Z,23.90
2022-07-25T12:35:10.850Z,24.57
2022-07-25T12:37:39.283Z,25.36
2022-07-25T12:40:09.811Z,25.45
2022-07-25T12:42:37.468Z,25.81
2022-07-25T12:45:05.785Z,25.49
2022-07-25T12:47:33.307Z,25.20
2022-07-25T12:50:01.207Z,25.25
2022-07-25T12:52:30.143Z,25.35
2022-07-25T12:54:57.641Z,26.08
2022-07-25T12:57:25.535Z,25.72
2022-07-25T12:59:53.053Z,26.16
2022-07-25T13:02:20.650Z,26.85
2022-07-25T13:04:48.978Z,26.91
2022-07-25T13:07:17.011Z,26.62
2022-07-25T13:09:45.884Z,26.90
2022-07-25T13:12:16.381Z,27.99
2022-07-25T13:14:44.231Z,27.50
2022-07-25T13:17:12.095Z,26.44
2022-07-25T13:19:39.624Z,27.41
2022-07-25T13:22:07.507Z,27.76
2022-07-25T13:24:35.237Z,27.28
2022-07-25T13:27:05.634Z,27.57
2022-07-25T13:29:33.191Z,26.87
2022-07-25T13:32:02.900Z,26.36
2022-07-25T13:34:31.839Z,28.19
2022-07-25T13:36:59.396Z,27.14
2022-07-25T13:39:27.264Z,27.47
2022-07-25T13:41:54.887Z,26.51
2022-07-25T13:44:23.729Z,27.08
2022-07-25T13:46:51.254Z,27.18
2022-07-25T13:49:19.224Z,27.57
2022-07-25T13:51:47.601Z,27.14
2022-07-25T13:54:15.174Z,26.42
2022-07-25T13:56:43.219Z,26.64
2022-07-25T13:59:14.496Z,26.08
2022-07-25T14:01:47.522Z,26.92
2022-07-25T14:04:15.156Z,25.97
2022-07-25T14:06:42.911Z,27.07
2022-07-25T14:09:10.813Z,26.08
2022-07-25T14:11:38.508Z,26.23
2022-07-25T14:14:06.011Z,26.94
2022-07-25T14:16:34.674Z,26.78
2022-07-25T14:19:03.743Z,26.73
2022-07-25T14:21:31.344Z,26.34
2022-07-25T14:23:58.818Z,24.87
2022-07-25T14:26:28.213Z,25.29
2022-07-25T14:28:55.787Z,25.54
2022-07-25T14:31:23.665Z,25.85
2022-07-25T14:33:51.368Z,25.59
2022-07-25T14:36:20.446Z,25.86
2022-07-25T14:38:48.445Z,26.20
2022-07-25T14:41:16.546Z,25.57
2022-07-25T14:43:44.088Z,25.91
2022-07-25T14:46:11.694Z,26.39
2022-07-25T14:48:39.639Z,26.33
2022-07-25T14:51:08.086Z,26.10
2022-07-25T14:53:38.145Z,26.04
2022-07-25T14:56:07.251Z,26.08
2022-07-25T14:58:35.390Z,26.97
2022-07-25T15:01:03.019Z,26.49
2022-07-25T15:03:30.690Z,26.08
2022-07-25T15:05:58.919Z,26.86
2022-07-25T15:08:26.558Z,26.95
2022-07-25T15:10:55.809Z,26.81
2022-07-25T15:13:32.074Z,27.15
2022-07-25T15:16:00.149Z,27.13
2022-07-25T15:18:28.255Z,27.54
2022-07-25T15:20:55.811Z,27.70
2022-07-25T15:23:24.913Z,28.35
2022-07-25T15:26:02.296Z,28.38
2022-07-25T15:28:33.728Z,28.10
2022-07-25T15:31:01.463Z,27.87
2022-07-25T15:33:29.399Z,27.78
2022-07-25T15:35:57.054Z,27.69
2022-07-25T15:38:24.825Z,27.92
2022-07-25T15:40:52.605Z,27.89
2022-07-25T15:43:20.228Z,27.48
2022-07-25T15:45:49.128Z,28.38
2022-07-25T15:48:18.063Z,27.40
2022-07-25T15:50:47.108Z,27.79
2022-07-25T15:53:15.080Z,27.81
2022-07-25T15:55:43.611Z,27.13
2022-07-25T15:58:12.123Z,27.85
2022-07-25T16:00:40.815Z,27.36
2022-07-25T16:03:10.391Z,27.90
2022-07-25T16:05:39.820Z,28.39
2022-07-25T16:08:08.562Z,28.43
2022-07-25T16:10:36.585Z,26.85
2022-07-25T16:13:04.428Z,26.47
2022-07-25T16:15:32.110Z,27.32
2022-07-25T16:18:02.598Z,27.06
2022-07-25T16:20:33.295Z,26.96
2022-07-25T16:23:01.228Z,27.16
2022-07-25T16:25:30.793Z,26.96
2022-07-25T16:27:59.501Z,26.68
2022-07-25T16:30:27.443Z,27.24
2022-07-25T16:32:55.573Z,27.31
2022-07-25T16:35:23.492Z,27.29
2022-07-25T16:37:52.867Z,27.50
2022-07-25T16:40:21.119Z,27.83
2022-07-25T16:42:49.720Z,28.13
2022-07-25T16:45:17.330Z,28.32
2022-07-25T16:47:44.894Z,28.46
2022-07-25T16:50:12.399Z,30.79
2022-07-25T16:52:40.065Z,32.61
2022-07-25T16:55:09.850Z,33.86
2022-07-25T16:57:39.036Z,34.89
2022-07-25T17:00:09.268Z,35.56
2022-07-25T17:02:37.223Z,36.36
2022-07-25T17:05:05.519Z,36.55
2022-07-25T17:07:33.289Z,36.76
2022-07-25T17:10:00.777Z,38.06
2022-07-25T17:12:29.692Z,38.15
2022-07-25T17:14:57.184Z,38.33
2022-07-25T17:17:24.694Z,38.42
2022-07-25T17:19:55.412Z,38.68
2022-07-25T17:22:27.013Z,41.02
2022-07-25T17:24:54.511Z,41.97
2022-07-25T17:27:22.015Z,42.69
2022-07-25T17:29:50.990Z,42.11
2022-07-25T17:32:18.544Z,43.36
2022-07-25T17:34:47.086Z,45.33
2022-07-25T17:37:14.687Z,45.79
2022-07-25T17:39:42.403Z,46.70
2022-07-25T17:42:09.976Z,47.01
2022-07-25T17:44:37.655Z,47.18
2022-07-25T17:47:07.317Z,47.95
2022-07-25T17:49:35.018Z,49.38
2022-07-25T17:52:02.542Z,46.72
2022-07-25T17:54:30.109Z,48.68
2022-07-25T17:56:58.718Z,50.05
2022-07-25T17:59:26.247Z,50.17
2022-07-25T18:01:53.834Z,49.92
2022-07-25T18:04:23.256Z,50.22
2022-07-25T18:06:50.981Z,52.02
2022-07-25T18:09:20.319Z,52.02
2022-07-25T18:11:47.952Z,52.60
2022-07-25T18:14:15.484Z,52.48
2022-07-25T18:16:45.417Z,54.06
2022-07-25T18:19:13.269Z,54.71
2022-07-25T18:21:42.111Z,55.18
2022-07-25T18:24:10.245Z,55.89
2022-07-25T18:26:38.171Z,56.38
2022-07-25T18:29:06.591Z,57.09
2022-07-25T18:31:34.262Z,57.27
2022-07-25T18:34:02.205Z,58.72
2022-07-25T18:36:30.912Z,59.99
2022-07-25T18:38:59.793Z,60.08
2022-07-25T18:41:29.589Z,60.22
2022-07-25T18:43:57.584Z,61.10
2022-07-25T18:46:25.542Z,61.94
2022-07-25T18:48:53.897Z,61.92
2022-07-25T18:51:21.621Z,62.42
2022-07-25T18:53:49.579Z,62.45
2022-07-25T18:56:18.500Z,62.99
2022-07-25T18:58:46.586Z,63.22
2022-07-25T19:01:14.279Z,63.08
2022-07-25T19:03:41.901Z,63.37
2022-07-25T19:06:11.832Z,64.27
2022-07-25T19:08:39.632Z,63.81
2022-07-25T19:11:08.569Z,63.63
2022-07-25T19:13:49.553Z,64.17
2022-07-25T19:16:18.739Z,63.97
2022-07-25T19:18:46.551Z,64.25
2022-07-25T19:21:15.251Z,64.50
2022-07-25T19:23:46.980Z,64.75
2022-07-25T19:26:17.977Z,64.91
2022-07-25T19:28:47.109Z,64.86
2022-07-25T19:31:14.904Z,64.83
2022-07-25T19:33:42.788Z,64.68
2022-07-25T19:36:10.990Z,65.25
2022-07-25T19:38:38.777Z,66.21
2022-07-25T19:41:06.530Z,65.59
2022-07-25T19:43:34.017Z,65.93
2022-07-25T19:46:02.977Z,66.21
2022-07-25T19:48:30.663Z,65.74
2022-07-25T19:50:58.256Z,66.05
2022-07-25T19:53:28.635Z,65.46
2022-07-25T19:55:56.464Z,65.74
2022-07-25T19:58:24.055Z,65.00
2022-07-25T20:00:51.672Z,63.11
2022-07-25T20:03:23.384Z,62.00
2022-07-25T20:05:52.036Z,60.39
2022-07-25T20:08:19.750Z,59.94
2022-07-25T20:10:47.346Z,59.75
2022-07-25T20:13:15.277Z,59.86
2022-07-25T20:15:42.835Z,60.90
2022-07-25T20:18:10.420Z,60.65
2022-07-25T20:20:39.413Z,61.31
2022-07-25T20:23:07.014Z,61.42
2022-07-25T20:25:34.540Z,61.94
2022-07-25T20:28:02.408Z,63.37
2022-07-25T20:30:34.625Z,63.11
2022-07-25T20:33:05.386Z,63.41
2022-07-25T20:35:39.448Z,64.10
2022-07-25T20:38:09.643Z,65.03
2022-07-25T20:40:38.074Z,65.01
2022-07-25T20:43:09.194Z,65.61
2022-07-25T20:45:37.219Z,65.93
2022-07-25T20:48:08.045Z,66.60
2022-07-25T20:50:37.795Z,66.70
2022-07-25T20:53:07.338Z,66.69
2022-07-25T20:55:35.444Z,67.58
2022-07-25T20:58:03.826Z,67.48
2022-07-25T21:00:31.894Z,67.77
2022-07-25T21:03:00.267Z,68.42
2022-07-25T21:05:28.396Z,68.34
2022-07-25T21:07:56.199Z,68.46
2022-07-25T21:10:25.500Z,68.47
2022-07-25T21:12:55.866Z,68.70
2022-07-25T21:15:24.288Z,68.55
2022-07-25T21:17:52.017Z,68.94
2022-07-25T21:20:19.624Z,68.94
2022-07-25T21:22:47.331Z,69.02
2022-07-25T21:25:15.083Z,68.97
2022-07-25T21:27:43.907Z,68.90
2022-07-25T21:30:12.336Z,68.81
2022-07-25T21:32:41.162Z,68.42
2022-07-25T21:35:09.570Z,68.51
2022-07-25T21:37:37.128Z,68.76
2022-07-25T21:40:05.466Z,69.06
2022-07-25T21:42:33.320Z,69.52
2022-07-25T21:45:02.150Z,69.74
2022-07-25T21:47:29.626Z,71.02
2022-07-25T21:50:19.236Z,71.87
2022-07-25T21:52:52.841Z,74.06
2022-07-25T21:55:21.488Z,74.25
2022-07-25T21:57:49.651Z,75.47
2022-07-25T22:00:19.731Z,76.70
2022-07-25T22:02:48.023Z,76.98
2022-07-25T22:05:17.072Z,77.56
2022-07-25T22:07:46.665Z,77.72
2022-07-25T22:10:16.283Z,78.24
2022-07-25T22:12:44.086Z,78.70
2022-07-25T22:15:13.058Z,79.09
2022-07-25T22:17:48.232Z,79.64
2022-07-25T22:20:17.698Z,80.25
2022-07-25T22:22:45.182Z,80.49
2022-07-25T22:25:12.836Z,80.71
2022-07-25T22:27:40.394Z,81.19
2022-07-25T22:30:12.230Z,81.43
2022-07-25T22:32:43.699Z,81.89
2022-07-25T22:35:11.324Z,83.48
2022-07-25T22:37:38.784Z,83.71
2022-07-25T22:40:07.643Z,83.52
2022-07-25T22:42:35.150Z,83.48
2022-07-25T22:45:02.691Z,83.56
2022-07-25T22:47:30.170Z,83.43
2022-07-25T22:49:59.081Z,83.73
2022-07-25T22:52:26.615Z,83.58
2022-07-25T22:54:54.103Z,84.17
2022-07-25T22:57:21.595Z,83.53
2022-07-25T22:59:49.533Z,83.91
2022-07-25T23:02:17.302Z,83.95
2022-07-25T23:04:44.810Z,83.95
2022-07-25T23:07:13.682Z,83.96
2022-07-25T23:09:41.232Z,83.79
2022-07-25T23:12:09.434Z,84.08
2022-07-25T23:14:37.002Z,83.74
2022-07-25T23:17:20.772Z,83.74
2022-07-25T23:19:51.311Z,84.17
2022-07-25T23:22:22.193Z,84.15
2022-07-25T23:24:50.445Z,84.33
2022-07-25T23:27:19.031Z,84.29
2022-07-25T23:29:46.546Z,84.85
2022-07-25T23:32:14.223Z,84.75
2022-07-25T23:34:41.802Z,84.69
2022-07-25T23:37:09.321Z,84.83
2022-07-25T23:39:38.245Z,84.77
2022-07-25T23:42:05.830Z,84.76
2022-07-25T23:44:33.367Z,84.76
2022-07-25T23:47:04.264Z,85.71
2022-07-25T23:49:34.724Z,85.53
2022-07-25T23:52:02.214Z,85.99
2022-07-25T23:54:29.759Z,86.28
2022-07-25T23:56:58.592Z,86.68
2022-07-25T23:59:26.130Z,87.09
